sensor_id;sensor_type;location;lat;lon;timestamp;P1;durP1;ratioP1;P2;durP2;ratioP2
2434;SDS011;1228;51.022;6.764;2023-07-31T00:00:40;12.17;;;6.53;;
2434;SDS011;1228;51.022;6.764;2023-07-31T00:03:06;11.77;;;6.20;;
2434;SDS011;1228;51.022;6.764;2023-07-31T00:05:32;13.20;;;6.70;;
2434;SDS011;1228;51.022;6.764;2023-07-31T00:07:57;10.07;;;6.00;;
2434;SDS011;1228;51.022;6.764;2023-07-31T00:10:23;11.77;;;6.23;;
2434;SDS011;1228;51.022;6.764;2023-07-31T00:12:48;10.33;;;6.67;;
2434;SDS011;1228;51.022;6.764;2023-07-31T00:15:14;8.23;;;6.30;;
2434;SDS011;1228;51.022;6.764;2023-07-31T00:17:40;6.80;;;5.43;;
2434;SDS011;1228;51.022;6.764;2023-07-31T00:20:06;12.90;;;6.90;;
2434;SDS011;1228;51.022;6.764;2023-07-31T00:22:32;10.30;;;6.20;;
2434;SDS011;1228;51.022;6.764;2023-07-31T00:24:57;12.10;;;6.33;;
2434;SDS011;1228;51.022;6.764;2023-07-31T00:27:24;11.57;;;6.17;;
2434;SDS011;1228;51.022;6.764;2023-07-31T00:29:50;9.13;;;6.13;;
2434;SDS011;1228;51.022;6.764;2023-07-31T00:32:15;7.87;;;5.60;;
2434;SDS011;1228;51.022;6.764;2023-07-31T00:34:41;13.10;;;6.47;;
2434;SDS011;1228;51.022;6.764;2023-07-31T00:37:07;8.73;;;6.10;;
2434;SDS011;1228;51.022;6.764;2023-07-31T00:39:33;8.53;;;5.83;;
2434;SDS011;1228;51.022;6.764;2023-07-31T00:41:59;8.00;;;5.80;;
2434;SDS011;1228;51.022;6.764;2023-07-31T00:44:25;13.23;;;5.73;;
2434;SDS011;1228;51.022;6.764;2023-07-31T00:46:51;12.23;;;6.37;;
2434;SDS011;1228;51.022;6.764;2023-07-31T00:49:17;9.90;;;5.07;;
2434;SDS011;1228;51.022;6.764;2023-07-31T00:51:43;10.77;;;5.40;;
2434;SDS011;1228;51.022;6.764;2023-07-31T00:54:08;7.27;;;5.37;;
2434;SDS011;1228;51.022;6.764;2023-07-31T00:56:35;10.73;;;5.30;;
2434;SDS011;1228;51.022;6.764;2023-07-31T00:59:02;6.07;;;4.80;;
2434;SDS011;1228;51.022;6.764;2023-07-31T01:01:28;5.83;;;5.33;;
2434;SDS011;1228;51.022;6.764;2023-07-31T01:03:54;9.43;;;5.63;;
2434;SDS011;1228;51.022;6.764;2023-07-31T01:08:54;5.27;;;4.77;;
2434;SDS011;1228;51.022;6.764;2023-07-31T01:11:28;7.70;;;5.73;;
2434;SDS011;1228;51.022;6.764;2023-07-31T01:13:56;8.93;;;4.97;;
2434;SDS011;1228;51.022;6.764;2023-07-31T01:16:22;7.03;;;4.87;;
2434;SDS011;1228;51.022;6.764;2023-07-31T01:18:48;6.33;;;5.30;;
2434;SDS011;1228;51.022;6.764;2023-07-31T01:24:19;6.73;;;5.00;;
2434;SDS011;1228;51.022;6.764;2023-07-31T01:29:44;6.87;;;4.73;;
2434;SDS011;1228;51.022;6.764;2023-07-31T01:32:18;6.57;;;5.83;;
2434;SDS011;1228;51.022;6.764;2023-07-31T01:34:45;7.00;;;5.47;;
2434;SDS011;1228;51.022;6.764;2023-07-31T01:37:11;6.03;;;4.13;;
2434;SDS011;1228;51.022;6.764;2023-07-31T01:39:37;6.43;;;4.70;;
2434;SDS011;1228;51.022;6.764;2023-07-31T01:42:03;6.77;;;4.87;;
2434;SDS011;1228;51.022;6.764;2023-07-31T01:44:28;6.87;;;4.80;;
2434;SDS011;1228;51.022;6.764;2023-07-31T01:46:54;9.27;;;5.07;;
2434;SDS011;1228;51.022;6.764;2023-07-31T01:49:20;6.10;;;5.50;;
2434;SDS011;1228;51.022;6.764;2023-07-31T01:51:45;7.37;;;5.33;;
2434;SDS011;1228;51.022;6.764;2023-07-31T01:54:11;8.83;;;5.03;;
2434;SDS011;1228;51.022;6.764;2023-07-31T01:56:37;9.37;;;5.90;;
2434;SDS011;1228;51.022;6.764;2023-07-31T01:59:02;5.40;;;4.90;;
2434;SDS011;1228;51.022;6.764;2023-07-31T02:01:28;8.53;;;4.40;;
2434;SDS011;1228;51.022;6.764;2023-07-31T02:03:53;5.93;;;4.13;;
2434;SDS011;1228;51.022;6.764;2023-07-31T02:06:19;7.23;;;4.50;;
2434;SDS011;1228;51.022;6.764;2023-07-31T02:08:45;6.67;;;4.57;;
2434;SDS011;1228;51.022;6.764;2023-07-31T02:11:10;5.93;;;4.47;;
2434;SDS011;1228;51.022;6.764;2023-07-31T02:13:36;6.47;;;3.80;;
2434;SDS011;1228;51.022;6.764;2023-07-31T02:16:01;8.13;;;4.30;;
2434;SDS011;1228;51.022;6.764;2023-07-31T02:18:27;5.30;;;4.43;;
2434;SDS011;1228;51.022;6.764;2023-07-31T02:20:53;6.63;;;4.13;;
2434;SDS011;1228;51.022;6.764;2023-07-31T02:23:19;8.20;;;4.30;;
2434;SDS011;1228;51.022;6.764;2023-07-31T02:25:44;8.17;;;4.70;;
2434;SDS011;1228;51.022;6.764;2023-07-31T02:28:10;4.50;;;4.10;;
2434;SDS011;1228;51.022;6.764;2023-07-31T02:30:36;5.07;;;4.17;;
2434;SDS011;1228;51.022;6.764;2023-07-31T02:33:02;7.93;;;4.93;;
2434;SDS011;1228;51.022;6.764;2023-07-31T02:35:28;6.03;;;5.30;;
2434;SDS011;1228;51.022;6.764;2023-07-31T02:37:54;7.43;;;4.40;;
2434;SDS011;1228;51.022;6.764;2023-07-31T02:40:19;5.20;;;4.70;;
2434;SDS011;1228;51.022;6.764;2023-07-31T02:42:45;6.20;;;4.50;;
2434;SDS011;1228;51.022;6.764;2023-07-31T02:45:10;4.10;;;3.80;;
2434;SDS011;1228;51.022;6.764;2023-07-31T02:47:36;7.47;;;4.20;;
2434;SDS011;1228;51.022;6.764;2023-07-31T02:50:05;5.67;;;3.70;;
2434;SDS011;1228;51.022;6.764;2023-07-31T02:52:31;7.30;;;4.57;;
2434;SDS011;1228;51.022;6.764;2023-07-31T02:54:57;6.50;;;3.83;;
2434;SDS011;1228;51.022;6.764;2023-07-31T02:57:23;5.17;;;4.27;;
2434;SDS011;1228;51.022;6.764;2023-07-31T02:59:48;6.47;;;4.43;;
2434;SDS011;1228;51.022;6.764;2023-07-31T03:02:14;9.60;;;5.33;;
2434;SDS011;1228;51.022;6.764;2023-07-31T03:04:40;9.30;;;4.47;;
2434;SDS011;1228;51.022;6.764;2023-07-31T03:07:05;7.07;;;5.03;;
2434;SDS011;1228;51.022;6.764;2023-07-31T03:09:31;8.37;;;4.33;;
2434;SDS011;1228;51.022;6.764;2023-07-31T03:11:57;7.73;;;4.60;;
2434;SDS011;1228;51.022;6.764;2023-07-31T03:14:22;6.43;;;4.20;;
2434;SDS011;1228;51.022;6.764;2023-07-31T03:16:48;8.40;;;5.57;;
2434;SDS011;1228;51.022;6.764;2023-07-31T03:19:14;8.40;;;5.07;;
2434;SDS011;1228;51.022;6.764;2023-07-31T03:21:39;7.53;;;4.93;;
2434;SDS011;1228;51.022;6.764;2023-07-31T03:24:05;5.10;;;4.50;;
2434;SDS011;1228;51.022;6.764;2023-07-31T03:26:31;5.57;;;4.20;;
2434;SDS011;1228;51.022;6.764;2023-07-31T03:28:57;7.90;;;4.40;;
2434;SDS011;1228;51.022;6.764;2023-07-31T03:31:23;6.93;;;4.23;;
2434;SDS011;1228;51.022;6.764;2023-07-31T03:33:49;7.13;;;4.67;;
2434;SDS011;1228;51.022;6.764;2023-07-31T03:36:14;9.60;;;4.70;;
2434;SDS011;1228;51.022;6.764;2023-07-31T03:38:40;7.00;;;5.13;;
2434;SDS011;1228;51.022;6.764;2023-07-31T03:41:05;7.17;;;4.43;;
2434;SDS011;1228;51.022;6.764;2023-07-31T03:43:32;5.23;;;4.03;;
2434;SDS011;1228;51.022;6.764;2023-07-31T03:46:00;8.60;;;4.70;;
2434;SDS011;1228;51.022;6.764;2023-07-31T03:48:26;10.73;;;5.00;;
2434;SDS011;1228;51.022;6.764;2023-07-31T03:50:51;8.20;;;4.40;;
2434;SDS011;1228;51.022;6.764;2023-07-31T03:53:17;6.43;;;4.40;;
2434;SDS011;1228;51.022;6.764;2023-07-31T03:55:43;10.53;;;4.83;;
2434;SDS011;1228;51.022;6.764;2023-07-31T03:58:08;7.83;;;4.67;;
2434;SDS011;1228;51.022;6.764;2023-07-31T04:00:34;7.40;;;5.33;;
2434;SDS011;1228;51.022;6.764;2023-07-31T04:02:59;10.73;;;4.87;;
2434;SDS011;1228;51.022;6.764;2023-07-31T04:05:25;7.47;;;5.13;;
2434;SDS011;1228;51.022;6.764;2023-07-31T04:07:51;6.30;;;4.80;;
2434;SDS011;1228;51.022;6.764;2023-07-31T04:10:16;7.60;;;4.87;;
2434;SDS011;1228;51.022;6.764;2023-07-31T04:12:42;6.63;;;4.87;;
2434;SDS011;1228;51.022;6.764;2023-07-31T04:15:07;7.17;;;4.73;;
2434;SDS011;1228;51.022;6.764;2023-07-31T04:17:33;5.97;;;5.00;;
2434;SDS011;1228;51.022;6.764;2023-07-31T04:19:59;7.13;;;5.23;;
2434;SDS011;1228;51.022;6.764;2023-07-31T04:22:25;8.93;;;5.43;;
2434;SDS011;1228;51.022;6.764;2023-07-31T04:24:50;8.23;;;4.77;;
2434;SDS011;1228;51.022;6.764;2023-07-31T04:27:16;9.03;;;4.80;;
2434;SDS011;1228;51.022;6.764;2023-07-31T04:29:41;4.83;;;4.33;;
2434;SDS011;1228;51.022;6.764;2023-07-31T04:32:09;11.13;;;5.50;;
2434;SDS011;1228;51.022;6.764;2023-07-31T04:34:34;6.13;;;4.97;;
2434;SDS011;1228;51.022;6.764;2023-07-31T04:37:00;8.67;;;5.67;;
2434;SDS011;1228;51.022;6.764;2023-07-31T04:39:26;6.97;;;5.60;;
2434;SDS011;1228;51.022;6.764;2023-07-31T04:41:51;8.80;;;5.30;;
2434;SDS011;1228;51.022;6.764;2023-07-31T04:44:17;7.03;;;5.47;;
2434;SDS011;1228;51.022;6.764;2023-07-31T04:46:42;6.43;;;4.73;;
2434;SDS011;1228;51.022;6.764;2023-07-31T04:49:08;6.47;;;5.00;;
2434;SDS011;1228;51.022;6.764;2023-07-31T04:51:33;9.43;;;4.83;;
2434;SDS011;1228;51.022;6.764;2023-07-31T04:53:59;8.37;;;5.03;;
2434;SDS011;1228;51.022;6.764;2023-07-31T04:56:25;8.00;;;5.57;;
2434;SDS011;1228;51.022;6.764;2023-07-31T04:58:50;7.07;;;4.83;;
2434;SDS011;1228;51.022;6.764;2023-07-31T05:01:16;8.30;;;5.03;;
2434;SDS011;1228;51.022;6.764;2023-07-31T05:03:41;7.50;;;5.13;;
2434;SDS011;1228;51.022;6.764;2023-07-31T05:06:07;6.83;;;4.47;;
2434;SDS011;1228;51.022;6.764;2023-07-31T05:08:33;6.80;;;4.83;;
2434;SDS011;1228;51.022;6.764;2023-07-31T05:10:58;9.40;;;5.73;;
2434;SDS011;1228;51.022;6.764;2023-07-31T05:13:24;5.30;;;4.60;;
2434;SDS011;1228;51.022;6.764;2023-07-31T05:15:49;6.60;;;4.57;;
2434;SDS011;1228;51.022;6.764;2023-07-31T05:18:15;6.53;;;4.70;;
2434;SDS011;1228;51.022;6.764;2023-07-31T05:20:41;7.17;;;4.60;;
2434;SDS011;1228;51.022;6.764;2023-07-31T05:23:06;7.27;;;4.70;;
2434;SDS011;1228;51.022;6.764;2023-07-31T05:25:32;9.13;;;4.90;;
2434;SDS011;1228;51.022;6.764;2023-07-31T05:27:57;6.50;;;4.73;;
2434;SDS011;1228;51.022;6.764;2023-07-31T05:30:23;5.63;;;4.97;;
2434;SDS011;1228;51.022;6.764;2023-07-31T05:32:49;5.17;;;4.67;;
2434;SDS011;1228;51.022;6.764;2023-07-31T05:35:14;5.00;;;4.50;;
2434;SDS011;1228;51.022;6.764;2023-07-31T05:37:40;4.77;;;3.90;;
2434;SDS011;1228;51.022;6.764;2023-07-31T05:40:06;8.03;;;4.43;;
2434;SDS011;1228;51.022;6.764;2023-07-31T05:42:32;6.93;;;4.53;;
2434;SDS011;1228;51.022;6.764;2023-07-31T05:44:57;4.93;;;4.40;;
2434;SDS011;1228;51.022;6.764;2023-07-31T05:47:23;5.87;;;4.00;;
2434;SDS011;1228;51.022;6.764;2023-07-31T05:49:49;6.90;;;4.10;;
2434;SDS011;1228;51.022;6.764;2023-07-31T05:52:17;5.50;;;3.87;;
2434;SDS011;1228;51.022;6.764;2023-07-31T05:54:43;7.83;;;4.53;;
2434;SDS011;1228;51.022;6.764;2023-07-31T05:57:09;5.57;;;4.50;;
2434;SDS011;1228;51.022;6.764;2023-07-31T05:59:34;4.90;;;4.40;;
2434;SDS011;1228;51.022;6.764;2023-07-31T06:02:00;6.63;;;4.50;;
2434;SDS011;1228;51.022;6.764;2023-07-31T06:04:26;6.33;;;4.67;;
2434;SDS011;1228;51.022;6.764;2023-07-31T06:06:51;11.50;;;4.70;;
2434;SDS011;1228;51.022;6.764;2023-07-31T06:09:17;6.90;;;4.40;;
2434;SDS011;1228;51.022;6.764;2023-07-31T06:11:43;6.90;;;4.70;;
2434;SDS011;1228;51.022;6.764;2023-07-31T06:14:08;8.00;;;5.10;;
2434;SDS011;1228;51.022;6.764;2023-07-31T06:16:34;6.37;;;4.80;;
2434;SDS011;1228;51.022;6.764;2023-07-31T06:19:00;5.03;;;4.53;;
2434;SDS011;1228;51.022;6.764;2023-07-31T06:21:25;7.10;;;4.37;;
2434;SDS011;1228;51.022;6.764;2023-07-31T06:23:51;6.00;;;4.47;;
2434;SDS011;1228;51.022;6.764;2023-07-31T06:26:17;5.97;;;4.23;;
2434;SDS011;1228;51.022;6.764;2023-07-31T06:28:43;6.73;;;4.97;;
2434;SDS011;1228;51.022;6.764;2023-07-31T06:31:08;9.57;;;6.83;;
2434;SDS011;1228;51.022;6.764;2023-07-31T06:33:34;5.27;;;4.77;;
2434;SDS011;1228;51.022;6.764;2023-07-31T06:36:00;5.50;;;4.83;;
2434;SDS011;1228;51.022;6.764;2023-07-31T06:38:26;6.37;;;4.70;;
2434;SDS011;1228;51.022;6.764;2023-07-31T06:40:52;4.83;;;4.33;;
2434;SDS011;1228;51.022;6.764;2023-07-31T06:43:18;9.43;;;5.43;;
2434;SDS011;1228;51.022;6.764;2023-07-31T06:45:43;7.73;;;5.33;;
2434;SDS011;1228;51.022;6.764;2023-07-31T06:48:09;8.03;;;5.00;;
2434;SDS011;1228;51.022;6.764;2023-07-31T06:50:35;5.60;;;4.77;;
2434;SDS011;1228;51.022;6.764;2023-07-31T06:53:00;5.90;;;4.70;;
2434;SDS011;1228;51.022;6.764;2023-07-31T06:55:26;5.43;;;4.63;;
2434;SDS011;1228;51.022;6.764;2023-07-31T06:57:53;7.83;;;4.90;;
2434;SDS011;1228;51.022;6.764;2023-07-31T07:00:20;7.23;;;4.83;;
2434;SDS011;1228;51.022;6.764;2023-07-31T07:02:47;4.80;;;4.20;;
2434;SDS011;1228;51.022;6.764;2023-07-31T07:05:13;5.37;;;4.57;;
2434;SDS011;1228;51.022;6.764;2023-07-31T07:07:40;7.70;;;4.23;;
2434;SDS011;1228;51.022;6.764;2023-07-31T07:10:06;6.87;;;4.10;;
2434;SDS011;1228;51.022;6.764;2023-07-31T07:12:32;8.43;;;4.37;;
2434;SDS011;1228;51.022;6.764;2023-07-31T07:14:58;4.47;;;4.07;;
2434;SDS011;1228;51.022;6.764;2023-07-31T07:17:25;5.50;;;4.63;;
2434;SDS011;1228;51.022;6.764;2023-07-31T07:19:52;7.83;;;4.03;;
2434;SDS011;1228;51.022;6.764;2023-07-31T07:22:18;6.20;;;4.13;;
2434;SDS011;1228;51.022;6.764;2023-07-31T07:24:43;4.83;;;4.20;;
2434;SDS011;1228;51.022;6.764;2023-07-31T07:27:09;5.57;;;4.33;;
2434;SDS011;1228;51.022;6.764;2023-07-31T07:29:35;5.93;;;4.33;;
2434;SDS011;1228;51.022;6.764;2023-07-31T07:32:01;6.83;;;4.43;;
2434;SDS011;1228;51.022;6.764;2023-07-31T07:34:27;5.43;;;4.73;;
2434;SDS011;1228;51.022;6.764;2023-07-31T07:36:52;10.80;;;4.67;;
2434;SDS011;1228;51.022;6.764;2023-07-31T07:39:18;6.43;;;4.33;;
2434;SDS011;1228;51.022;6.764;2023-07-31T07:41:44;8.30;;;4.73;;
2434;SDS011;1228;51.022;6.764;2023-07-31T07:44:09;6.00;;;4.17;;
2434;SDS011;1228;51.022;6.764;2023-07-31T07:46:35;5.90;;;3.83;;
2434;SDS011;1228;51.022;6.764;2023-07-31T07:49:01;11.97;;;4.97;;
2434;SDS011;1228;51.022;6.764;2023-07-31T07:51:26;4.67;;;4.17;;
2434;SDS011;1228;51.022;6.764;2023-07-31T07:53:52;4.90;;;4.37;;
2434;SDS011;1228;51.022;6.764;2023-07-31T07:56:17;7.07;;;4.60;;
2434;SDS011;1228;51.022;6.764;2023-07-31T07:58:43;4.97;;;4.47;;
2434;SDS011;1228;51.022;6.764;2023-07-31T08:01:08;5.87;;;4.77;;
2434;SDS011;1228;51.022;6.764;2023-07-31T08:03:34;5.40;;;4.63;;
2434;SDS011;1228;51.022;6.764;2023-07-31T08:06:00;5.90;;;4.83;;
2434;SDS011;1228;51.022;6.764;2023-07-31T08:08:27;5.33;;;4.80;;
2434;SDS011;1228;51.022;6.764;2023-07-31T08:10:53;4.73;;;4.33;;
2434;SDS011;1228;51.022;6.764;2023-07-31T08:13:18;4.73;;;4.23;;
2434;SDS011;1228;51.022;6.764;2023-07-31T08:15:44;7.23;;;4.37;;
2434;SDS011;1228;51.022;6.764;2023-07-31T08:18:10;5.70;;;4.30;;
2434;SDS011;1228;51.022;6.764;2023-07-31T08:20:36;7.50;;;4.97;;
2434;SDS011;1228;51.022;6.764;2023-07-31T08:23:02;6.87;;;4.13;;
2434;SDS011;1228;51.022;6.764;2023-07-31T08:25:28;6.90;;;4.57;;
2434;SDS011;1228;51.022;6.764;2023-07-31T08:27:54;5.63;;;4.40;;
2434;SDS011;1228;51.022;6.764;2023-07-31T08:30:20;5.10;;;4.60;;
2434;SDS011;1228;51.022;6.764;2023-07-31T08:32:46;4.40;;;4.07;;
2434;SDS011;1228;51.022;6.764;2023-07-31T08:35:12;4.63;;;4.23;;
2434;SDS011;1228;51.022;6.764;2023-07-31T08:37:37;5.83;;;4.10;;
2434;SDS011;1228;51.022;6.764;2023-07-31T08:40:04;4.90;;;4.20;;
2434;SDS011;1228;51.022;6.764;2023-07-31T08:42:30;7.77;;;4.00;;
2434;SDS011;1228;51.022;6.764;2023-07-31T08:44:56;5.73;;;4.03;;
2434;SDS011;1228;51.022;6.764;2023-07-31T08:47:25;6.23;;;4.03;;
2434;SDS011;1228;51.022;6.764;2023-07-31T08:49:52;4.70;;;4.30;;
2434;SDS011;1228;51.022;6.764;2023-07-31T08:52:19;4.27;;;3.87;;
2434;SDS011;1228;51.022;6.764;2023-07-31T08:54:45;5.83;;;4.40;;
2434;SDS011;1228;51.022;6.764;2023-07-31T08:57:11;5.07;;;3.90;;
2434;SDS011;1228;51.022;6.764;2023-07-31T08:59:37;5.93;;;4.03;;
2434;SDS011;1228;51.022;6.764;2023-07-31T09:02:07;5.13;;;4.57;;
2434;SDS011;1228;51.022;6.764;2023-07-31T09:04:34;5.30;;;4.30;;
2434;SDS011;1228;51.022;6.764;2023-07-31T09:07:00;4.27;;;3.97;;
2434;SDS011;1228;51.022;6.764;2023-07-31T09:09:29;5.07;;;4.07;;
2434;SDS011;1228;51.022;6.764;2023-07-31T09:11:55;5.93;;;3.87;;
2434;SDS011;1228;51.022;6.764;2023-07-31T09:14:22;4.50;;;4.17;;
2434;SDS011;1228;51.022;6.764;2023-07-31T09:16:57;6.60;;;3.87;;
2434;SDS011;1228;51.022;6.764;2023-07-31T09:19:29;5.57;;;4.00;;
2434;SDS011;1228;51.022;6.764;2023-07-31T09:21:59;8.97;;;4.20;;
2434;SDS011;1228;51.022;6.764;2023-07-31T09:24:28;4.97;;;4.47;;
2434;SDS011;1228;51.022;6.764;2023-07-31T09:26:56;9.73;;;4.17;;
2434;SDS011;1228;51.022;6.764;2023-07-31T09:29:24;4.83;;;4.17;;
2434;SDS011;1228;51.022;6.764;2023-07-31T09:31:51;5.47;;;4.90;;
2434;SDS011;1228;51.022;6.764;2023-07-31T09:34:18;4.33;;;3.93;;
2434;SDS011;1228;51.022;6.764;2023-07-31T09:36:46;5.10;;;3.43;;
2434;SDS011;1228;51.022;6.764;2023-07-31T09:39:13;5.30;;;3.60;;
2434;SDS011;1228;51.022;6.764;2023-07-31T09:41:46;4.43;;;3.50;;
2434;SDS011;1228;51.022;6.764;2023-07-31T09:44:19;4.63;;;3.40;;
2434;SDS011;1228;51.022;6.764;2023-07-31T09:46:45;3.30;;;3.03;;
2434;SDS011;1228;51.022;6.764;2023-07-31T09:49:11;3.70;;;3.40;;
2434;SDS011;1228;51.022;6.764;2023-07-31T09:51:38;3.53;;;3.23;;
2434;SDS011;1228;51.022;6.764;2023-07-31T09:56:44;3.43;;;3.13;;
2434;SDS011;1228;51.022;6.764;2023-07-31T09:59:16;4.47;;;3.57;;
2434;SDS011;1228;51.022;6.764;2023-07-31T10:01:43;4.63;;;3.43;;
2434;SDS011;1228;51.022;6.764;2023-07-31T10:04:11;4.77;;;3.50;;
2434;SDS011;1228;51.022;6.764;2023-07-31T10:06:38;6.10;;;3.33;;
2434;SDS011;1228;51.022;6.764;2023-07-31T10:09:06;6.23;;;3.70;;
2434;SDS011;1228;51.022;6.764;2023-07-31T10:11:43;4.77;;;3.87;;
2434;SDS011;1228;51.022;6.764;2023-07-31T10:14:16;5.20;;;3.33;;
2434;SDS011;1228;51.022;6.764;2023-07-31T10:16:44;5.20;;;4.00;;
2434;SDS011;1228;51.022;6.764;2023-07-31T10:19:10;3.53;;;3.23;;
2434;SDS011;1228;51.022;6.764;2023-07-31T10:21:36;4.77;;;3.20;;
2434;SDS011;1228;51.022;6.764;2023-07-31T10:24:03;4.23;;;3.73;;
2434;SDS011;1228;51.022;6.764;2023-07-31T10:26:30;3.33;;;3.03;;
2434;SDS011;1228;51.022;6.764;2023-07-31T10:28:58;5.50;;;3.43;;
2434;SDS011;1228;51.022;6.764;2023-07-31T10:31:25;4.03;;;3.40;;
2434;SDS011;1228;51.022;6.764;2023-07-31T10:33:52;4.73;;;3.20;;
2434;SDS011;1228;51.022;6.764;2023-07-31T10:36:20;5.10;;;3.27;;
2434;SDS011;1228;51.022;6.764;2023-07-31T10:38:49;5.10;;;3.50;;
2434;SDS011;1228;51.022;6.764;2023-07-31T10:41:18;5.37;;;3.40;;
2434;SDS011;1228;51.022;6.764;2023-07-31T10:43:45;3.47;;;3.17;;
2434;SDS011;1228;51.022;6.764;2023-07-31T10:46:12;4.17;;;3.10;;
2434;SDS011;1228;51.022;6.764;2023-07-31T10:48:38;3.57;;;3.27;;
2434;SDS011;1228;51.022;6.764;2023-07-31T10:51:08;4.07;;;3.07;;
2434;SDS011;1228;51.022;6.764;2023-07-31T10:53:35;5.73;;;3.30;;
2434;SDS011;1228;51.022;6.764;2023-07-31T10:56:02;3.03;;;2.83;;
2434;SDS011;1228;51.022;6.764;2023-07-31T10:58:29;4.40;;;4.00;;
2434;SDS011;1228;51.022;6.764;2023-07-31T11:01:02;3.27;;;3.07;;
2434;SDS011;1228;51.022;6.764;2023-07-31T11:03:45;2.75;;;2.55;;
2434;SDS011;1228;51.022;6.764;2023-07-31T11:06:13;3.67;;;2.90;;
2434;SDS011;1228;51.022;6.764;2023-07-31T11:08:43;2.53;;;2.33;;
2434;SDS011;1228;51.022;6.764;2023-07-31T11:11:11;3.57;;;3.37;;
2434;SDS011;1228;51.022;6.764;2023-07-31T11:13:42;2.37;;;2.27;;
2434;SDS011;1228;51.022;6.764;2023-07-31T11:16:14;2.92;;;2.72;;
2434;SDS011;1228;51.022;6.764;2023-07-31T11:18:41;2.20;;;2.03;;
2434;SDS011;1228;51.022;6.764;2023-07-31T11:21:15;3.35;;;2.28;;
2434;SDS011;1228;51.022;6.764;2023-07-31T11:23:45;2.75;;;2.50;;
2434;SDS011;1228;51.022;6.764;2023-07-31T11:26:12;2.28;;;2.17;;
2434;SDS011;1228;51.022;6.764;2023-07-31T11:28:37;2.75;;;2.55;;
2434;SDS011;1228;51.022;6.764;2023-07-31T11:31:03;2.60;;;2.22;;
2434;SDS011;1228;51.022;6.764;2023-07-31T11:33:29;2.57;;;2.47;;
2434;SDS011;1228;51.022;6.764;2023-07-31T11:35:55;2.35;;;2.25;;
2434;SDS011;1228;51.022;6.764;2023-07-31T11:38:25;2.63;;;2.42;;
2434;SDS011;1228;51.022;6.764;2023-07-31T11:40:52;2.90;;;2.70;;
2434;SDS011;1228;51.022;6.764;2023-07-31T11:43:19;2.42;;;2.33;;
2434;SDS011;1228;51.022;6.764;2023-07-31T11:45:49;2.57;;;2.37;;
2434;SDS011;1228;51.022;6.764;2023-07-31T11:48:30;2.10;;;2.00;;
2434;SDS011;1228;51.022;6.764;2023-07-31T11:50:59;2.47;;;2.38;;
2434;SDS011;1228;51.022;6.764;2023-07-31T11:53:38;2.10;;;2.00;;
2434;SDS011;1228;51.022;6.764;2023-07-31T11:56:04;2.50;;;2.30;;
2434;SDS011;1228;51.022;6.764;2023-07-31T11:58:31;2.15;;;2.05;;
2434;SDS011;1228;51.022;6.764;2023-07-31T12:00:58;2.50;;;2.30;;
2434;SDS011;1228;51.022;6.764;2023-07-31T12:03:25;2.30;;;2.20;;
2434;SDS011;1228;51.022;6.764;2023-07-31T12:05:52;2.65;;;2.30;;
2434;SDS011;1228;51.022;6.764;2023-07-31T12:08:18;2.67;;;2.47;;
2434;SDS011;1228;51.022;6.764;2023-07-31T12:10:46;2.60;;;2.40;;
2434;SDS011;1228;51.022;6.764;2023-07-31T12:13:24;2.90;;;2.70;;
2434;SDS011;1228;51.022;6.764;2023-07-31T12:15:58;2.77;;;2.57;;
2434;SDS011;1228;51.022;6.764;2023-07-31T12:18:27;3.03;;;2.83;;
2434;SDS011;1228;51.022;6.764;2023-07-31T12:20:57;3.27;;;2.90;;
2434;SDS011;1228;51.022;6.764;2023-07-31T12:26:01;3.00;;;2.77;;
2434;SDS011;1228;51.022;6.764;2023-07-31T12:28:26;3.30;;;3.00;;
2434;SDS011;1228;51.022;6.764;2023-07-31T12:30:52;5.03;;;2.90;;
2434;SDS011;1228;51.022;6.764;2023-07-31T12:33:24;3.15;;;2.95;;
2434;SDS011;1228;51.022;6.764;2023-07-31T12:35:55;3.55;;;2.92;;
2434;SDS011;1228;51.022;6.764;2023-07-31T12:38:20;3.45;;;3.00;;
2434;SDS011;1228;51.022;6.764;2023-07-31T12:40:46;4.07;;;2.58;;
2434;SDS011;1228;51.022;6.764;2023-07-31T12:43:11;3.30;;;3.00;;
2434;SDS011;1228;51.022;6.764;2023-07-31T12:45:38;3.10;;;2.80;;
2434;SDS011;1228;51.022;6.764;2023-07-31T12:48:04;3.00;;;2.80;;
2434;SDS011;1228;51.022;6.764;2023-07-31T12:50:29;4.13;;;3.38;;
2434;SDS011;1228;51.022;6.764;2023-07-31T12:52:55;3.80;;;3.42;;
2434;SDS011;1228;51.022;6.764;2023-07-31T12:55:21;3.47;;;3.17;;
2434;SDS011;1228;51.022;6.764;2023-07-31T12:57:47;3.50;;;3.20;;
2434;SDS011;1228;51.022;6.764;2023-07-31T13:00:13;3.67;;;3.30;;
2434;SDS011;1228;51.022;6.764;2023-07-31T13:02:39;3.47;;;3.17;;
2434;SDS011;1228;51.022;6.764;2023-07-31T13:05:05;3.80;;;3.22;;
2434;SDS011;1228;51.022;6.764;2023-07-31T13:07:31;3.95;;;3.20;;
2434;SDS011;1228;51.022;6.764;2023-07-31T13:09:56;3.20;;;3.00;;
2434;SDS011;1228;51.022;6.764;2023-07-31T13:12:22;3.13;;;2.92;;
2434;SDS011;1228;51.022;6.764;2023-07-31T13:14:48;3.92;;;3.05;;
2434;SDS011;1228;51.022;6.764;2023-07-31T13:17:13;3.85;;;3.55;;
2434;SDS011;1228;51.022;6.764;2023-07-31T13:19:39;3.40;;;3.10;;
2434;SDS011;1228;51.022;6.764;2023-07-31T13:22:05;3.15;;;2.88;;
2434;SDS011;1228;51.022;6.764;2023-07-31T13:24:30;3.45;;;3.15;;
2434;SDS011;1228;51.022;6.764;2023-07-31T13:29:23;2.95;;;2.75;;
2434;SDS011;1228;51.022;6.764;2023-07-31T13:31:49;3.67;;;3.38;;
2434;SDS011;1228;51.022;6.764;2023-07-31T13:34:15;4.70;;;3.30;;
2434;SDS011;1228;51.022;6.764;2023-07-31T13:36:40;2.40;;;2.20;;
2434;SDS011;1228;51.022;6.764;2023-07-31T13:39:07;3.17;;;2.90;;
2434;SDS011;1228;51.022;6.764;2023-07-31T13:41:32;3.30;;;2.63;;
2434;SDS011;1228;51.022;6.764;2023-07-31T13:43:58;5.00;;;3.42;;
2434;SDS011;1228;51.022;6.764;2023-07-31T13:46:23;3.00;;;2.80;;
2434;SDS011;1228;51.022;6.764;2023-07-31T13:48:50;3.00;;;2.78;;
2434;SDS011;1228;51.022;6.764;2023-07-31T13:51:16;2.75;;;2.55;;
2434;SDS011;1228;51.022;6.764;2023-07-31T13:53:42;3.42;;;2.83;;
2434;SDS011;1228;51.022;6.764;2023-07-31T13:56:07;2.75;;;2.55;;
2434;SDS011;1228;51.022;6.764;2023-07-31T13:58:33;3.33;;;3.03;;
2434;SDS011;1228;51.022;6.764;2023-07-31T14:00:58;2.90;;;2.63;;
2434;SDS011;1228;51.022;6.764;2023-07-31T14:03:24;3.63;;;3.30;;
2434;SDS011;1228;51.022;6.764;2023-07-31T14:05:51;3.53;;;3.22;;
2434;SDS011;1228;51.022;6.764;2023-07-31T14:08:17;3.60;;;3.40;;
2434;SDS011;1228;51.022;6.764;2023-07-31T14:10:42;3.08;;;2.78;;
2434;SDS011;1228;51.022;6.764;2023-07-31T14:13:08;3.13;;;2.83;;
2434;SDS011;1228;51.022;6.764;2023-07-31T14:15:34;3.25;;;2.72;;
2434;SDS011;1228;51.022;6.764;2023-07-31T14:18:01;3.30;;;3.00;;
2434;SDS011;1228;51.022;6.764;2023-07-31T14:20:27;4.10;;;3.45;;
2434;SDS011;1228;51.022;6.764;2023-07-31T14:22:53;3.08;;;2.83;;
2434;SDS011;1228;51.022;6.764;2023-07-31T14:25:18;4.55;;;3.85;;
2434;SDS011;1228;51.022;6.764;2023-07-31T14:27:45;3.45;;;3.10;;
2434;SDS011;1228;51.022;6.764;2023-07-31T14:30:10;3.65;;;3.35;;
2434;SDS011;1228;51.022;6.764;2023-07-31T14:32:36;3.78;;;3.28;;
2434;SDS011;1228;51.022;6.764;2023-07-31T14:35:02;4.63;;;3.60;;
2434;SDS011;1228;51.022;6.764;2023-07-31T14:37:36;6.80;;;3.85;;
2434;SDS011;1228;51.022;6.764;2023-07-31T14:40:09;4.43;;;3.55;;
2434;SDS011;1228;51.022;6.764;2023-07-31T14:42:36;5.28;;;3.45;;
2434;SDS011;1228;51.022;6.764;2023-07-31T14:45:03;4.05;;;3.65;;
2434;SDS011;1228;51.022;6.764;2023-07-31T14:47:32;4.68;;;3.63;;
2434;SDS011;1228;51.022;6.764;2023-07-31T14:49:59;4.97;;;3.90;;
2434;SDS011;1228;51.022;6.764;2023-07-31T14:52:25;7.13;;;5.10;;
2434;SDS011;1228;51.022;6.764;2023-07-31T14:54:51;4.22;;;3.80;;
2434;SDS011;1228;51.022;6.764;2023-07-31T14:57:17;6.75;;;3.60;;
2434;SDS011;1228;51.022;6.764;2023-07-31T14:59:42;3.85;;;3.50;;
2434;SDS011;1228;51.022;6.764;2023-07-31T15:02:08;4.47;;;3.72;;
2434;SDS011;1228;51.022;6.764;2023-07-31T15:04:35;4.15;;;3.60;;
2434;SDS011;1228;51.022;6.764;2023-07-31T15:07:01;4.43;;;3.58;;
2434;SDS011;1228;51.022;6.764;2023-07-31T15:09:26;3.90;;;3.60;;
2434;SDS011;1228;51.022;6.764;2023-07-31T15:11:52;4.55;;;4.15;;
2434;SDS011;1228;51.022;6.764;2023-07-31T15:14:18;5.03;;;4.50;;
2434;SDS011;1228;51.022;6.764;2023-07-31T15:16:44;5.32;;;4.13;;
2434;SDS011;1228;51.022;6.764;2023-07-31T15:19:09;4.85;;;4.03;;
2434;SDS011;1228;51.022;6.764;2023-07-31T15:21:35;3.95;;;3.60;;
2434;SDS011;1228;51.022;6.764;2023-07-31T15:24:02;4.60;;;4.20;;
2434;SDS011;1228;51.022;6.764;2023-07-31T15:26:27;5.23;;;4.73;;